< < Back
Terminal Aerodrome Forecast


Current Version              Previous Versions:   1  2  3  4  5  6  7  8  9  

Terminal Aerodrome Forecast

307
FTUS42 KCAE 210500
TAFCAE
TAF
KCAE 210520Z 2106/2206 07005KT P6SM SCT015 OVC024
     FM210800 VRB03KT P6SM SCT010 OVC015
     FM211300 05004KT P6SM BKN015 OVC025
     FM212000 06005KT P6SM VCSH OVC015=



Latest METAR

658
SAUS80 KWBC 211400 RRA
MTRCAE
METAR KCAE 211356Z 05006KT 6SM HZ SCT050 BKN080 08/02 A3026 RMK AO2
SLP247 T00780022


USA.gov is the U.S. government's official web portal to all federal, state and local government web resources and services.